createdAt,value
2023-05-16T00:00:58.550Z,98729.84
2023-05-16T00:02:00.372Z,98732.25
2023-05-16T00:03:05.698Z,98736.78
2023-05-16T00:04:07.699Z,98738.63
2023-05-16T00:05:10.795Z,98733.31
2023-05-16T00:06:12.666Z,98735.16
2023-05-16T00:07:14.674Z,98729.50
2023-05-16T00:08:16.831Z,98734.59
2023-05-16T00:09:18.615Z,98739.66
2023-05-16T00:10:20.450Z,98735.97
2023-05-16T00:11:22.141Z,98720.38
2023-05-16T00:12:24.237Z,98732.72
2023-05-16T00:13:26.345Z,98732.72
2023-05-16T00:14:28.545Z,98725.81
2023-05-16T00:15:30.330Z,98732.06
2023-05-16T00:16:32.113Z,98716.50
2023-05-16T00:17:33.928Z,98722.38
2023-05-16T00:18:39.159Z,98725.88
2023-05-16T00:19:42.451Z,98722.75
2023-05-16T00:20:44.173Z,98723.22
2023-05-16T00:21:46.103Z,98729.13
2023-05-16T00:22:47.839Z,98722.63
2023-05-16T00:23:49.730Z,98727.00
2023-05-16T00:24:51.525Z,98721.69
2023-05-16T00:25:53.345Z,98707.72
2023-05-16T00:26:55.098Z,98724.63
2023-05-16T00:27:57.031Z,98717.91
2023-05-16T00:28:58.843Z,98723.00
2023-05-16T00:30:01.623Z,98721.69
2023-05-16T00:31:03.390Z,98726.19
2023-05-16T00:32:05.449Z,98719.31
2023-05-16T00:33:07.226Z,98720.41
2023-05-16T00:34:09.024Z,98724.13
2023-05-16T00:35:11.874Z,98723.81
2023-05-16T00:36:13.591Z,98724.63
2023-05-16T00:37:15.695Z,98714.22
2023-05-16T00:38:17.454Z,98715.56
2023-05-16T00:39:19.163Z,98715.56
2023-05-16T00:40:21.603Z,98707.38
2023-05-16T00:41:23.791Z,98714.66
2023-05-16T00:42:25.480Z,98717.06
2023-05-16T00:43:27.256Z,98717.66
2023-05-16T00:44:29.156Z,98719.00
2023-05-16T00:45:30.903Z,98722.56
2023-05-16T00:46:32.820Z,98723.16
2023-05-16T00:47:34.701Z,98712.84
2023-05-16T00:48:36.521Z,98711.56
2023-05-16T00:49:38.412Z,98702.47
2023-05-16T00:50:40.667Z,98708.75
2023-05-16T00:51:43.027Z,98710.38
2023-05-16T00:52:45.266Z,98700.22
2023-05-16T00:53:47.112Z,98698.03
2023-05-16T00:54:49.057Z,98707.97
2023-05-16T00:55:51.839Z,98705.06
2023-05-16T00:56:53.766Z,98700.31
2023-05-16T00:57:56.204Z,98709.09
2023-05-16T00:58:58.156Z,98701.13
2023-05-16T00:59:59.981Z,98704.31
2023-05-16T01:01:04.168Z,98703.84
2023-05-16T01:02:06.088Z,98695.53
2023-05-16T01:03:09.539Z,98695.31
2023-05-16T01:04:11.463Z,98694.94
2023-05-16T01:05:13.298Z,98701.88
2023-05-16T01:06:15.200Z,98697.59
2023-05-16T01:07:17.194Z,98703.50
2023-05-16T01:08:19.397Z,98688.47
2023-05-16T01:09:22.000Z,98696.69
2023-05-16T01:10:24.716Z,98696.47
2023-05-16T01:11:45.151Z,98693.31
2023-05-16T01:13:08.864Z,98696.22
2023-05-16T01:14:26.134Z,98697.97
2023-05-16T01:15:41.310Z,98693.16
2023-05-16T01:17:08.674Z,98689.59
2023-05-16T01:18:25.790Z,98690.22
2023-05-16T01:19:52.558Z,98692.75
2023-05-16T01:21:00.591Z,98687.13
2023-05-16T01:22:47.712Z,98687.38
2023-05-16T01:24:01.052Z,98684.22
2023-05-16T01:25:06.472Z,98687.59
2023-05-16T01:26:14.280Z,98679.31
2023-05-16T01:27:17.330Z,98676.19
2023-05-16T01:28:20.188Z,98674.31
2023-05-16T01:29:21.996Z,98671.09
2023-05-16T01:30:23.765Z,98680.22
2023-05-16T01:31:25.610Z,98679.88
2023-05-16T01:32:27.334Z,98684.72
2023-05-16T01:33:29.096Z,98684.22
2023-05-16T01:34:30.922Z,98683.75
2023-05-16T01:35:33.585Z,98680.88
2023-05-16T01:36:59.389Z,98680.41
2023-05-16T01:38:06.867Z,98671.94
2023-05-16T01:39:20.163Z,98667.69
2023-05-16T01:40:44.799Z,98672.25
2023-05-16T01:42:01.513Z,98672.59
2023-05-16T01:43:09.230Z,98671.56
2023-05-16T01:44:42.933Z,98675.03
2023-05-16T01:45:54.260Z,98672.38
2023-05-16T01:46:59.899Z,98666.25
2023-05-16T01:48:10.998Z,98664.63
2023-05-16T01:49:29.109Z,98670.28
2023-05-16T01:50:34.964Z,98663.09
2023-05-16T01:51:39.852Z,98666.81
2023-05-16T01:53:04.226Z,98661.50
2023-05-16T01:54:11.294Z,98649.72
2023-05-16T01:55:21.645Z,98656.41
2023-05-16T01:56:23.830Z,98650.44
2023-05-16T01:57:28.029Z,98657.34
2023-05-16T01:58:33.356Z,98660.00
2023-05-16T01:59:36.230Z,98645.91
2023-05-16T02:00:38.278Z,98642.97
2023-05-16T02:01:40.341Z,98642.16
2023-05-16T02:02:42.298Z,98642.47
2023-05-16T02:03:44.083Z,98637.13
2023-05-16T02:04:46.264Z,98640.59
2023-05-16T02:05:47.989Z,98634.47
2023-05-16T02:06:50.529Z,98634.47
2023-05-16T02:07:52.927Z,98639.78
2023-05-16T02:08:54.701Z,98639.56
2023-05-16T02:09:56.495Z,98637.13
2023-05-16T02:10:58.314Z,98636.34
2023-05-16T02:12:00.740Z,98635.06
2023-05-16T02:13:02.498Z,98633.69
2023-05-16T02:14:04.237Z,98633.94
2023-05-16T02:15:06.775Z,98634.97
2023-05-16T02:16:11.159Z,98635.22
2023-05-16T02:17:12.941Z,98645.75
2023-05-16T02:18:14.754Z,98636.41
2023-05-16T02:19:16.559Z,98643.31
2023-05-16T02:20:18.430Z,98634.31
2023-05-16T02:21:20.153Z,98643.44
2023-05-16T02:22:21.903Z,98638.13
2023-05-16T02:23:23.613Z,98642.38
2023-05-16T02:24:25.404Z,98635.94
2023-05-16T02:25:27.496Z,98634.66
2023-05-16T02:26:29.343Z,98642.38
2023-05-16T02:27:31.215Z,98634.19
2023-05-16T02:28:33.016Z,98634.66
2023-05-16T02:29:34.749Z,98637.41
2023-05-16T02:30:36.460Z,98635.78
2023-05-16T02:31:41.407Z,98629.56
2023-05-16T02:32:45.267Z,98628.63
2023-05-16T02:33:47.083Z,98633.69
2023-05-16T02:34:48.848Z,98627.00
2023-05-16T02:35:51.103Z,98622.16
2023-05-16T02:36:52.817Z,98624.34
2023-05-16T02:37:54.574Z,98628.34
2023-05-16T02:38:56.257Z,98626.78
2023-05-16T02:39:57.965Z,98625.47
2023-05-16T02:40:59.686Z,98629.16
2023-05-16T02:42:01.496Z,98627.31
2023-05-16T02:43:03.206Z,98631.81
2023-05-16T02:44:05.100Z,98623.84
2023-05-16T02:45:07.169Z,98623.84
2023-05-16T02:46:31.957Z,98620.16
2023-05-16T02:47:33.758Z,98614.84
2023-05-16T02:48:35.462Z,98616.16
2023-05-16T02:49:37.150Z,98615.34
2023-05-16T02:50:40.426Z,98610.50
2023-05-16T02:51:42.138Z,98617.44
2023-05-16T02:52:43.882Z,98611.78
2023-05-16T02:53:45.742Z,98613.63
2023-05-16T02:54:56.076Z,98618.94
2023-05-16T02:56:10.335Z,98616.53
2023-05-16T02:57:12.778Z,98621.59
2023-05-16T02:58:14.493Z,98616.28
2023-05-16T02:59:16.218Z,98613.06
2023-05-16T03:00:18.984Z,98623.69
2023-05-16T03:01:21.265Z,98625.28
2023-05-16T03:02:23.101Z,98627.16
2023-05-16T03:03:24.940Z,98631.41
2023-05-16T03:04:26.648Z,98629.81
2023-05-16T03:05:28.676Z,98632.81
2023-05-16T03:06:30.618Z,98631.41
2023-05-16T03:07:33.395Z,98634.88
2023-05-16T03:08:35.406Z,98636.50
2023-05-16T03:09:37.135Z,98632.00
2023-05-16T03:10:38.843Z,98639.97
2023-05-16T03:11:40.596Z,98639.16
2023-05-16T03:12:42.308Z,98646.56
2023-05-16T03:13:44.021Z,98639.38
2023-05-16T03:14:45.710Z,98641.47
2023-05-16T03:15:47.488Z,98634.78
2023-05-16T03:16:49.350Z,98641.25
2023-05-16T03:17:51.255Z,98636.41
2023-05-16T03:18:53.111Z,98640.09
2023-05-16T03:19:54.862Z,98638.59
2023-05-16T03:20:57.581Z,98642.28
2023-05-16T03:21:59.323Z,98639.63
2023-05-16T03:23:01.195Z,98639.06
2023-05-16T03:24:06.905Z,98648.34
2023-05-16T03:25:08.928Z,98645.75
2023-05-16T03:26:10.726Z,98637.38
2023-05-16T03:27:12.626Z,98639.56
2023-05-16T03:28:15.512Z,98635.28
2023-05-16T03:29:17.510Z,98638.50
2023-05-16T03:30:20.524Z,98645.41
2023-05-16T03:31:22.267Z,98645.41
2023-05-16T03:32:24.033Z,98645.75
2023-05-16T03:33:25.879Z,98633.66
2023-05-16T03:34:28.306Z,98630.19
2023-05-16T03:35:31.739Z,98635.28
2023-05-16T03:36:33.670Z,98637.94
2023-05-16T03:37:35.597Z,98638.97
2023-05-16T03:38:37.587Z,98642.22
2023-05-16T03:39:39.457Z,98644.88
2023-05-16T03:40:41.593Z,98648.56
2023-05-16T03:41:43.990Z,98649.13
2023-05-16T03:42:45.786Z,98648.06
2023-05-16T03:43:47.474Z,98656.03
2023-05-16T03:44:49.238Z,98643.97
2023-05-16T03:45:50.950Z,98649.13
2023-05-16T03:46:54.327Z,98658.16
2023-05-16T03:47:56.309Z,98647.53
2023-05-16T03:48:58.108Z,98651.00
2023-05-16T03:49:59.839Z,98647.03
2023-05-16T03:51:01.634Z,98648.63
2023-05-16T03:52:07.344Z,98638.63
2023-05-16T03:53:09.875Z,98650.41
2023-05-16T03:54:11.826Z,98652.56
2023-05-16T03:55:15.398Z,98647.03
2023-05-16T03:56:17.383Z,98653.94
2023-05-16T03:57:19.117Z,98646.78
2023-05-16T03:58:20.848Z,98654.28
2023-05-16T03:59:22.597Z,98652.44
2023-05-16T04:00:24.376Z,98651.63
2023-05-16T04:01:26.119Z,98651.41
2023-05-16T04:02:27.937Z,98653.00
2023-05-16T04:03:30.465Z,98655.44
2023-05-16T04:04:32.264Z,98656.47
2023-05-16T04:05:34.209Z,98651.72
2023-05-16T04:06:35.934Z,98637.88
2023-05-16T04:07:38.475Z,98646.72
2023-05-16T04:08:41.209Z,98648.34
2023-05-16T04:09:42.942Z,98644.16
2023-05-16T04:10:47.389Z,98646.59
2023-05-16T04:11:49.181Z,98644.81
2023-05-16T04:12:51.710Z,98637.06
2023-05-16T04:13:54.351Z,98626.94
2023-05-16T04:14:56.217Z,98632.66
2023-05-16T04:15:57.930Z,98641.78
2023-05-16T04:17:00.297Z,98625.16
2023-05-16T04:18:02.300Z,98629.53
2023-05-16T04:19:04.203Z,98637.91
2023-05-16T04:20:07.199Z,98637.44
2023-05-16T04:21:10.964Z,98634.53
2023-05-16T04:22:12.738Z,98630.00
2023-05-16T04:23:14.674Z,98637.81
2023-05-16T04:24:16.784Z,98637.34
2023-05-16T04:25:18.544Z,98640.81
2023-05-16T04:26:22.715Z,98632.34
2023-05-16T04:27:24.489Z,98632.09
2023-05-16T04:28:26.347Z,98633.69
2023-05-16T04:29:28.190Z,98631.59
2023-05-16T04:30:29.936Z,98637.25
2023-05-16T04:31:32.160Z,98642.91
2023-05-16T04:32:35.466Z,98640.81
2023-05-16T04:33:37.472Z,98631.50
2023-05-16T04:34:40.257Z,98637.16
2023-05-16T04:35:42.417Z,98647.78
2023-05-16T04:36:44.184Z,98644.09
2023-05-16T04:37:45.900Z,98647.31
2023-05-16T04:38:48.071Z,98646.59
2023-05-16T04:39:49.814Z,98645.53
2023-05-16T04:40:51.854Z,98650.13
2023-05-16T04:41:53.600Z,98644.66
2023-05-16T04:42:55.604Z,98640.13
2023-05-16T04:43:57.424Z,98652.53
2023-05-16T04:44:59.190Z,98649.63
2023-05-16T04:46:01.397Z,98655.03
2023-05-16T04:47:03.224Z,98644.91
2023-05-16T04:48:05.245Z,98643.59
2023-05-16T04:49:07.343Z,98651.41
2023-05-16T04:50:09.573Z,98648.50
2023-05-16T04:51:12.140Z,98657.06
2023-05-16T04:52:13.840Z,98657.06
2023-05-16T04:53:15.596Z,98641.25
2023-05-16T04:54:17.346Z,98650.41
2023-05-16T04:55:19.047Z,98655.81
2023-05-16T04:56:20.837Z,98639.84
2023-05-16T04:57:22.863Z,98650.59
2023-05-16T04:58:24.712Z,98643.66
2023-05-16T04:59:26.402Z,98644.75
2023-05-16T05:00:28.493Z,98649.56
2023-05-16T05:01:31.001Z,98655.53
2023-05-16T05:02:32.867Z,98650.75
2023-05-16T05:03:34.593Z,98658.00
2023-05-16T05:04:36.350Z,98636.94
2023-05-16T05:05:38.229Z,98651.25
2023-05-16T05:06:39.973Z,98660.16
2023-05-16T05:07:41.799Z,98657.34
2023-05-16T05:08:43.496Z,98648.06
2023-05-16T05:09:45.237Z,98659.59
2023-05-16T05:10:46.943Z,98661.25
2023-05-16T05:11:48.651Z,98657.03
2023-05-16T05:12:50.892Z,98662.41
2023-05-16T05:13:53.066Z,98649.53
2023-05-16T05:14:55.134Z,98654.81
2023-05-16T05:15:56.841Z,98659.41
2023-05-16T05:16:58.571Z,98656.03
2023-05-16T05:18:00.656Z,98629.50
2023-05-16T05:19:02.961Z,98642.47
2023-05-16T05:20:10.551Z,98652.16
2023-05-16T05:21:12.315Z,98655.31
2023-05-16T05:22:15.326Z,98650.53
2023-05-16T05:23:17.082Z,98648.94
2023-05-16T05:24:19.316Z,98647.09
2023-05-16T05:25:21.052Z,98647.47
2023-05-16T05:26:22.914Z,98649.41
2023-05-16T05:27:25.508Z,98648.38
2023-05-16T05:28:27.229Z,98645.00
2023-05-16T05:29:28.957Z,98650.91
2023-05-16T05:30:30.729Z,98654.09
2023-05-16T05:31:34.045Z,98654.41
2023-05-16T05:32:35.879Z,98658.44
2023-05-16T05:33:37.715Z,98655.25
2023-05-16T05:34:39.409Z,98657.66
2023-05-16T05:35:41.109Z,98655.81
2023-05-16T05:36:43.092Z,98650.47
2023-05-16T05:37:44.893Z,98643.25
2023-05-16T05:38:46.639Z,98644.59
2023-05-16T05:39:48.347Z,98644.09
2023-05-16T05:40:50.075Z,98640.38
2023-05-16T05:41:52.045Z,98638.19
2023-05-16T05:42:54.225Z,98641.91
2023-05-16T05:43:56.050Z,98632.81
2023-05-16T05:44:57.744Z,98631.75
2023-05-16T05:45:59.623Z,98621.56
2023-05-16T05:47:01.371Z,98632.22
2023-05-16T05:48:03.521Z,98636.72
2023-05-16T05:49:06.015Z,98639.88
2023-05-16T05:50:08.718Z,98637.72
2023-05-16T05:51:10.559Z,98644.56
2023-05-16T05:52:12.441Z,98636.25
2023-05-16T05:53:14.187Z,98640.09
2023-05-16T05:54:15.951Z,98637.19
2023-05-16T05:55:18.072Z,98638.50
2023-05-16T05:56:21.407Z,98642.28
2023-05-16T05:57:23.139Z,98638.81
2023-05-16T05:58:24.837Z,98637.50
2023-05-16T05:59:27.587Z,98633.22
2023-05-16T06:00:29.601Z,98639.13
2023-05-16T06:01:31.357Z,98627.41
2023-05-16T06:02:33.760Z,98627.16
2023-05-16T06:03:35.666Z,98631.13
2023-05-16T06:04:37.872Z,98631.94
2023-05-16T06:05:39.660Z,98633.03
2023-05-16T06:06:41.550Z,98632.72
2023-05-16T06:07:43.278Z,98634.59
2023-05-16T06:08:45.017Z,98634.78
2023-05-16T06:09:47.163Z,98632.69
2023-05-16T06:10:48.889Z,98626.78
2023-05-16T06:11:50.841Z,98628.16
2023-05-16T06:12:52.547Z,98632.13
2023-05-16T06:13:54.255Z,98639.75
2023-05-16T06:14:56.308Z,98645.06
2023-05-16T06:15:57.997Z,98662.41
2023-05-16T06:16:59.753Z,98664.41
2023-05-16T06:18:01.526Z,98670.56
2023-05-16T06:19:06.288Z,98649.50
2023-05-16T06:20:08.689Z,98632.44
2023-05-16T06:21:10.481Z,98631.06
2023-05-16T06:22:12.494Z,98633.25
2023-05-16T06:23:14.224Z,98633.47
2023-05-16T06:24:18.950Z,98632.38
2023-05-16T06:25:20.726Z,98642.53
2023-05-16T06:26:22.898Z,98629.16
2023-05-16T06:27:24.709Z,98632.13
2023-05-16T06:28:26.953Z,98635.91
2023-05-16T06:29:28.680Z,98647.91
2023-05-16T06:30:30.527Z,98657.22
2023-05-16T06:31:32.510Z,98648.38
2023-05-16T06:32:34.889Z,98642.78
2023-05-16T06:33:36.704Z,98631.88
2023-05-16T06:34:38.408Z,98643.38
2023-05-16T06:35:42.904Z,98629.78
2023-05-16T06:36:44.838Z,98620.16
2023-05-16T06:37:46.553Z,98608.38
2023-05-16T06:38:48.311Z,98615.41
2023-05-16T06:39:50.082Z,98618.56
2023-05-16T06:40:51.794Z,98625.03
2023-05-16T06:41:56.233Z,98624.97
2023-05-16T06:42:58.647Z,98629.78
2023-05-16T06:44:00.434Z,98626.63
2023-05-16T06:45:02.275Z,98623.22
2023-05-16T06:46:05.194Z,98622.94
2023-05-16T06:47:07.030Z,98626.69
2023-05-16T06:48:08.993Z,98635.75
2023-05-16T06:49:10.852Z,98624.22
2023-05-16T06:50:12.607Z,98627.59
2023-05-16T06:51:14.333Z,98621.78
2023-05-16T06:52:16.164Z,98618.06
2023-05-16T06:53:18.619Z,98614.41
2023-05-16T06:54:20.346Z,98612.81
2023-05-16T06:55:22.133Z,98606.34
2023-05-16T06:56:23.998Z,98611.75
2023-05-16T06:57:26.431Z,98603.81
2023-05-16T06:58:28.279Z,98618.22
2023-05-16T06:59:30.109Z,98596.56
2023-05-16T07:00:32.245Z,98612.66
2023-05-16T07:01:34.046Z,98620.66
2023-05-16T07:02:35.997Z,98626.56
2023-05-16T07:03:37.959Z,98623.31
2023-05-16T07:04:40.556Z,98623.88
2023-05-16T07:05:42.322Z,98612.72
2023-05-16T07:06:44.097Z,98617.81
2023-05-16T07:07:45.828Z,98612.00
2023-05-16T07:08:47.781Z,98612.94
2023-05-16T07:09:49.531Z,98621.50
2023-05-16T07:10:51.299Z,98627.09
2023-05-16T07:11:53.139Z,98624.72
2023-05-16T07:12:55.728Z,98604.94
2023-05-16T07:13:57.471Z,98600.66
2023-05-16T07:14:59.808Z,98598.34
2023-05-16T07:16:01.544Z,98613.13
2023-05-16T07:17:03.900Z,98607.31
2023-05-16T07:18:06.052Z,98605.78
2023-05-16T07:19:08.659Z,98608.50
2023-05-16T07:20:13.690Z,98610.88
2023-05-16T07:21:15.502Z,98610.09
2023-05-16T07:22:17.430Z,98608.00
2023-05-16T07:23:19.282Z,98597.13
2023-05-16T07:24:21.085Z,98588.06
2023-05-16T07:25:22.942Z,98596.31
2023-05-16T07:26:24.799Z,98594.75
2023-05-16T07:27:27.940Z,98597.31
2023-05-16T07:28:29.772Z,98599.69
2023-05-16T07:29:31.809Z,98594.28
2023-05-16T07:30:33.561Z,98602.25
2023-05-16T07:31:35.353Z,98596.50
2023-05-16T07:32:38.184Z,98587.94
2023-05-16T07:33:39.964Z,98591.91
2023-05-16T07:34:41.751Z,98592.22
2023-05-16T07:35:43.914Z,98588.47
2023-05-16T07:36:45.879Z,98592.22
2023-05-16T07:37:47.917Z,98588.19
2023-05-16T07:38:49.806Z,98580.69
2023-05-16T07:39:51.584Z,98586.06
2023-05-16T07:40:53.392Z,98588.75
2023-05-16T07:41:55.540Z,98584.22
2023-05-16T07:42:57.515Z,98595.38
2023-05-16T07:43:59.799Z,98590.78
2023-05-16T07:45:02.751Z,98589.69
2023-05-16T07:46:05.453Z,98585.56
2023-05-16T07:47:07.826Z,98581.88
2023-05-16T07:48:09.942Z,98572.25
2023-05-16T07:49:11.771Z,98585.88
2023-05-16T07:50:13.536Z,98581.69
2023-05-16T07:51:15.337Z,98570.78
2023-05-16T07:52:17.606Z,98587.94
2023-05-16T07:53:19.374Z,98592.22
2023-05-16T07:54:21.526Z,98588.56
2023-05-16T07:55:23.609Z,98591.50
2023-05-16T07:56:25.362Z,98581.63
2023-05-16T07:57:27.708Z,98582.16
2023-05-16T07:58:29.601Z,98573.06
2023-05-16T07:59:31.558Z,98577.56
2023-05-16T08:00:34.011Z,98565.81
2023-05-16T08:01:36.141Z,98565.28
2023-05-16T08:02:38.194Z,98559.16
2023-05-16T08:03:40.150Z,98563.59
2023-05-16T08:04:41.999Z,98561.16
2023-05-16T08:05:44.146Z,98554.25
2023-05-16T08:06:46.031Z,98564.94
2023-05-16T08:07:47.793Z,98561.75
2023-05-16T08:08:49.557Z,98557.25
2023-05-16T08:09:51.298Z,98564.00
2023-05-16T08:10:53.052Z,98563.19
2023-05-16T08:11:56.360Z,98573.63
2023-05-16T08:12:58.077Z,98574.72
2023-05-16T08:13:59.811Z,98574.72
2023-05-16T08:15:01.648Z,98577.69
2023-05-16T08:16:03.568Z,98568.88
2023-05-16T08:17:05.786Z,98552.25
2023-05-16T08:18:14.278Z,98564.91
2023-05-16T08:19:16.120Z,98570.03
2023-05-16T08:20:17.934Z,98567.09
2023-05-16T08:21:19.742Z,98566.03
2023-05-16T08:22:21.561Z,98563.63
2023-05-16T08:23:23.354Z,98557.47
2023-05-16T08:24:25.338Z,98552.44
2023-05-16T08:25:27.423Z,98562.06
2023-05-16T08:26:29.435Z,98562.59
2023-05-16T08:27:31.347Z,98555.16
2023-05-16T08:28:33.302Z,98556.72
2023-05-16T08:29:35.042Z,98571.25
2023-05-16T08:30:36.783Z,98565.66
2023-05-16T08:31:38.720Z,98562.75
2023-05-16T08:32:40.604Z,98573.44
2023-05-16T08:33:42.379Z,98572.41
2023-05-16T08:34:44.113Z,98556.63
2023-05-16T08:35:46.964Z,98558.22
2023-05-16T08:36:49.248Z,98553.44
2023-05-16T08:37:51.185Z,98555.31
2023-05-16T08:38:52.928Z,98555.34
2023-05-16T08:39:54.695Z,98563.66
2023-05-16T08:40:56.583Z,98564.16
2023-05-16T08:41:59.084Z,98555.34
2023-05-16T08:43:01.224Z,98552.16
2023-05-16T08:44:03.637Z,98555.91
2023-05-16T08:45:08.528Z,98549.50
2023-05-16T08:46:11.043Z,98550.06
2023-05-16T08:47:21.820Z,98547.41
2023-05-16T08:48:24.765Z,98548.75
2023-05-16T08:49:28.317Z,98539.66
2023-05-16T08:50:32.271Z,98527.84
2023-05-16T08:51:35.591Z,98547.38
2023-05-16T08:52:40.259Z,98544.69
2023-05-16T08:53:46.495Z,98545.72
2023-05-16T08:55:05.693Z,98540.91
2023-05-16T08:56:11.335Z,98540.88
2023-05-16T08:57:14.513Z,98538.72
2023-05-16T08:58:17.132Z,98549.16
2023-05-16T08:59:19.440Z,98539.25
2023-05-16T09:00:22.762Z,98538.13
2023-05-16T09:01:24.874Z,98523.69
2023-05-16T09:02:28.169Z,98528.22
2023-05-16T09:03:30.963Z,98537.38
2023-05-16T09:04:32.924Z,98531.75
2023-05-16T09:05:35.094Z,98537.09
2023-05-16T09:06:37.473Z,98533.66
2023-05-16T09:07:39.471Z,98540.38
2023-05-16T09:08:42.067Z,98534.19
2023-05-16T09:09:43.886Z,98537.59
2023-05-16T09:10:45.718Z,98541.81
2023-05-16T09:11:47.912Z,98537.88
2023-05-16T09:12:49.721Z,98546.81
2023-05-16T09:13:51.492Z,98551.03
2023-05-16T09:14:53.266Z,98541.38
2023-05-16T09:16:21.320Z,98550.03
2023-05-16T09:17:35.887Z,98546.09
2023-05-16T09:18:44.164Z,98536.31
2023-05-16T09:19:46.557Z,98537.75
2023-05-16T09:20:50.257Z,98538.25
2023-05-16T09:21:52.205Z,98542.47
2023-05-16T09:22:59.189Z,98543.25
2023-05-16T09:24:05.091Z,98531.22
2023-05-16T09:25:12.667Z,98525.06
2023-05-16T09:26:20.861Z,98526.06
2023-05-16T09:27:22.639Z,98512.41
2023-05-16T09:28:26.190Z,98521.34
2023-05-16T09:29:28.009Z,98521.06
2023-05-16T09:30:34.662Z,98525.88
2023-05-16T09:31:38.649Z,98522.31
2023-05-16T09:32:44.948Z,98525.78
2023-05-16T09:33:46.728Z,98524.09
2023-05-16T09:34:49.971Z,98533.28
2023-05-16T09:36:01.617Z,98519.03
2023-05-16T09:37:03.375Z,98517.47
2023-05-16T09:38:05.196Z,98513.00
2023-05-16T09:39:07.810Z,98511.88
2023-05-16T09:40:10.621Z,98511.59
2023-05-16T09:41:12.486Z,98523.53
2023-05-16T09:42:17.008Z,98528.59
2023-05-16T09:43:21.858Z,98512.28
2023-05-16T09:44:23.600Z,98518.03
2023-05-16T09:45:25.493Z,98501.09
2023-05-16T09:46:28.175Z,98498.69
2023-05-16T09:47:29.994Z,98496.91
2023-05-16T09:48:33.430Z,98484.13
2023-05-16T09:49:38.172Z,98486.00
2023-05-16T09:50:40.175Z,98488.56
2023-05-16T09:51:44.922Z,98489.06
2023-05-16T09:52:46.814Z,98490.84
2023-05-16T09:53:49.068Z,98494.63
2023-05-16T09:54:50.794Z,98491.03
2023-05-16T09:56:12.864Z,98495.31
2023-05-16T09:57:22.054Z,98498.94
2023-05-16T09:58:29.159Z,98501.56
2023-05-16T09:59:40.610Z,98494.78
2023-05-16T10:00:42.481Z,98496.59
2023-05-16T10:01:44.950Z,98499.63
2023-05-16T10:02:47.682Z,98494.19
2023-05-16T10:03:49.526Z,98508.03
2023-05-16T10:04:51.378Z,98515.31
2023-05-16T10:05:56.640Z,98506.78
2023-05-16T10:07:02.086Z,98524.00
2023-05-16T10:08:04.806Z,98529.88
2023-05-16T10:09:07.211Z,98528.88
2023-05-16T10:10:13.722Z,98532.56
2023-05-16T10:11:17.004Z,98533.06
2023-05-16T10:12:20.350Z,98516.47
2023-05-16T10:13:24.735Z,98515.03
2023-05-16T10:14:26.711Z,98512.34
2023-05-16T10:15:30.354Z,98514.28
2023-05-16T10:16:33.703Z,98503.25
2023-05-16T10:17:40.072Z,98501.28
2023-05-16T10:18:43.208Z,98503.16
2023-05-16T10:19:45.983Z,98496.00
2023-05-16T10:20:52.456Z,98491.25
2023-05-16T10:22:01.653Z,98482.75
2023-05-16T10:23:04.811Z,98472.56
2023-05-16T10:24:11.303Z,98478.19
2023-05-16T10:25:32.093Z,98476.72
2023-05-16T10:26:34.484Z,98466.19
2023-05-16T10:27:36.867Z,98467.28
2023-05-16T10:28:39.913Z,98458.25
2023-05-16T10:29:53.535Z,98465.09
2023-05-16T10:30:56.499Z,98451.41
2023-05-16T10:31:59.673Z,98467.88
2023-05-16T10:33:05.361Z,98457.13
2023-05-16T10:34:07.731Z,98463.72
2023-05-16T10:35:10.813Z,98460.97
2023-05-16T10:36:13.608Z,98454.69
2023-05-16T10:37:15.837Z,98451.59
2023-05-16T10:38:19.922Z,98450.09
2023-05-16T10:39:22.670Z,98444.53
2023-05-16T10:40:25.054Z,98451.50
2023-05-16T10:41:26.936Z,98441.47
2023-05-16T10:42:28.686Z,98440.78
2023-05-16T10:43:31.194Z,98432.38
2023-05-16T10:44:34.322Z,98438.00
2023-05-16T10:45:41.939Z,98433.44
2023-05-16T10:46:44.525Z,98431.16
2023-05-16T10:47:56.733Z,98435.59
2023-05-16T10:48:59.018Z,98430.91
2023-05-16T10:50:00.955Z,98426.19
2023-05-16T10:51:03.756Z,98431.91
2023-05-16T10:52:10.946Z,98432.41
2023-05-16T10:53:18.303Z,98427.25
2023-05-16T10:54:26.228Z,98438.94
2023-05-16T10:55:30.691Z,98445.91
2023-05-16T10:56:35.258Z,98441.19
2023-05-16T10:57:37.023Z,98437.50
2023-05-16T10:58:38.779Z,98437.06
2023-05-16T10:59:44.070Z,98424.66
2023-05-16T11:00:48.075Z,98425.59
2023-05-16T11:01:53.586Z,98426.03
2023-05-16T11:03:06.524Z,98415.59
2023-05-16T11:04:10.591Z,98413.38
2023-05-16T11:05:19.201Z,98411.50
2023-05-16T11:06:24.916Z,98409.97
2023-05-16T11:07:35.360Z,98418.44
2023-05-16T11:08:37.124Z,98418.13
2023-05-16T11:09:44.836Z,98412.69
2023-05-16T11:10:46.677Z,98416.06
2023-05-16T11:12:04.042Z,98421.34
2023-05-16T11:13:08.732Z,98433.69
2023-05-16T11:14:29.089Z,98423.91
2023-05-16T11:15:34.848Z,98425.41
2023-05-16T11:16:36.774Z,98425.91
2023-05-16T11:17:45.498Z,98424.94
2023-05-16T11:18:52.014Z,98425.38
2023-05-16T11:19:59.763Z,98420.38
2023-05-16T11:21:04.109Z,98417.50
2023-05-16T11:22:09.783Z,98425.78
2023-05-16T11:23:17.286Z,98419.03
2023-05-16T11:24:29.729Z,98418.47
2023-05-16T11:25:41.286Z,98420.88
2023-05-16T11:26:43.480Z,98423.84
2023-05-16T11:27:48.662Z,98423.84
2023-05-16T11:28:50.779Z,98427.97
2023-05-16T11:29:56.474Z,98428.56
2023-05-16T11:31:00.197Z,98425.16
2023-05-16T11:32:04.565Z,98427.78
2023-05-16T11:33:09.545Z,98436.31
2023-05-16T11:34:11.289Z,98425.09
2023-05-16T11:35:16.056Z,98424.16
2023-05-16T11:36:17.793Z,98427.28
2023-05-16T11:37:20.514Z,98423.50
2023-05-16T11:38:22.543Z,98425.78
2023-05-16T11:39:27.561Z,98421.16
2023-05-16T11:40:29.430Z,98427.56
2023-05-16T11:41:32.917Z,98424.47
2023-05-16T11:42:37.689Z,98425.97
2023-05-16T11:43:45.208Z,98426.75
2023-05-16T11:44:47.025Z,98427.34
2023-05-16T11:45:54.925Z,98426.09
2023-05-16T11:46:57.069Z,98422.81
2023-05-16T11:48:04.332Z,98421.13
2023-05-16T11:49:06.386Z,98414.75
2023-05-16T11:50:19.210Z,98410.97
2023-05-16T11:51:21.781Z,98408.94
2023-05-16T11:52:23.602Z,98410.06
2023-05-16T11:53:25.473Z,98405.75
2023-05-16T11:54:27.784Z,98404.06
2023-05-16T11:55:41.761Z,98414.78
2023-05-16T11:56:44.448Z,98397.25
2023-05-16T11:57:46.282Z,98396.19
2023-05-16T11:58:48.262Z,98399.13
2023-05-16T11:59:50.282Z,98404.22
2023-05-16T12:00:53.092Z,98391.66
2023-05-16T12:01:54.888Z,98381.75
2023-05-16T12:03:03.213Z,98391.13
2023-05-16T12:04:12.729Z,98394.19
2023-05-16T12:05:16.932Z,98390.94
2023-05-16T12:06:18.967Z,98398.72
2023-05-16T12:07:21.905Z,98404.31
2023-05-16T12:08:25.500Z,98406.72
2023-05-16T12:09:27.600Z,98406.50
2023-05-16T12:10:34.343Z,98409.47
2023-05-16T12:11:41.582Z,98401.31
2023-05-16T12:12:46.514Z,98398.63
2023-05-16T12:13:48.578Z,98407.88
2023-05-16T12:14:50.556Z,98415.88
2023-05-16T12:15:53.040Z,98415.88
2023-05-16T12:16:55.303Z,98410.06
2023-05-16T12:17:57.311Z,98411.78
2023-05-16T12:19:00.208Z,98415.56
2023-05-16T12:20:06.001Z,98412.75
2023-05-16T12:21:08.235Z,98411.47
2023-05-16T12:22:18.331Z,98413.25
2023-05-16T12:23:20.296Z,98413.84
2023-05-16T12:24:22.310Z,98403.06
2023-05-16T12:25:44.254Z,98414.88
2023-05-16T12:26:46.075Z,98416.66